Time;durP1;ratioP1;P1;durP2;ratioP2;P2;SDS_P1;SDS_P2;PMS_P1;PMS_P2;Temp;Humidity;BMP_temperature;BMP_pressure;BME280_temperature;BME280_humidity;BME280_pressure;Samples;Min_cycle;Max_cycle;Signal;HPM_P1;HPM_P2
2021/06/29 00:02:23;;;;;;;;;;;;;;;;;;5035342;28;19956;-80
2021/06/29 00:04:49;;;;;;;;;;;;;;;;;;5037809;28;19943;-80
2021/06/29 00:07:14;;;;;;;;;;;;;;;;;;5045653;28;20394;-80
2021/06/29 00:09:39;;;;;;;;;;;;;;;;;;5037549;28;20016;-80
2021/06/29 00:12:05;;;;;;;;;;;;;;;;;;5021317;28;20405;-80
2021/06/29 00:14:30;;;;;;;;;;;;;;;;;;5006670;28;19921;-80
2021/06/29 00:16:55;;;;;;;;;;;;;;;;;;5021769;28;19912;-80
2021/06/29 00:19:20;;;;;;;;;;;;;;;;;;5038061;28;20338;-80
2021/06/29 00:21:46;;;;;;;;;;;;;;;;;;5020882;28;19925;-80
2021/06/29 00:24:12;;;;;;;;;;;;;;;;;;5037195;28;19917;-80
2021/06/29 00:26:37;;;;;;;;;;;;;;;;;;5034181;28;20004;-80
2021/06/29 00:29:02;;;;;;;;;;;;;;;;;;5003495;28;20368;-80
2021/06/29 00:31:27;;;;;;;;;;;;;;;;;;5021027;28;19917;-80
2021/06/29 00:33:52;;;;;;;;;;;;;;;;;;5037083;28;19916;-80
2021/06/29 00:36:17;;;;;;;;;;;;;;;;;;5037986;28;19920;-80
2021/06/29 00:38:43;;;;;;;;;;;;;;;;;;5037732;28;20257;-80
2021/06/29 00:41:08;;;;;;;;;;;;;;;;;;5037763;28;19924;-80
2021/06/29 00:43:33;;;;;;;;;;;;;;;;;;5020196;28;19999;-80
2021/06/29 00:45:58;;;;;;;;;;;;;;;;;;5041417;28;19917;-80
2021/06/29 00:48:23;;;;;;;;;;;;;;;;;;5037897;28;19979;-80
2021/06/29 00:50:49;;;;;;;;;;;;;;;;;;5035602;28;19925;-80
2021/06/29 00:53:14;;;;;;;;;;;;;;;;;;5030993;28;19952;-80
2021/06/29 00:55:40;;;;;;;;;;;;;;;;;;5037405;28;20400;-80
2021/06/29 00:58:09;;;;;;;;;;;;;;;;;;5028701;28;19940;-80
2021/06/29 01:00:34;;;;;;;;;;;;;;;;;;5034442;28;19972;-80
2021/06/29 01:02:59;;;;;;;;;;;;;;;;;;5036853;28;19921;-80
2021/06/29 01:05:24;;;;;;;;;;;;;;;;;;5030122;28;19924;-80
2021/06/29 01:07:50;;;;;;;;;;;;;;;;;;5019577;28;19927;-80
2021/06/29 01:10:15;;;;;;;;;;;;;;;;;;5036651;28;19921;-80
2021/06/29 01:12:40;;;;;;;;;;;;;;;;;;5036842;28;19932;-80
2021/06/29 01:15:06;;;;;;;;;;;;;;;;;;5017882;28;19914;-80
2021/06/29 01:17:32;;;;;;;;;;;;;;;;;;5052184;28;19924;-80
2021/06/29 01:19:57;;;;;;;;;;;;;;;;;;5032242;28;20342;-80
2021/06/29 01:22:25;;;;;;;;;;;;;;;;;;5036315;28;20380;-80
2021/06/29 01:24:52;;;;;;;;;;;;;;;;;;5021004;28;20002;-80
2021/06/29 01:27:31;;;;;;;;;;;;;;;;;;5037987;28;19913;-80
2021/06/29 01:32:22;;;;;;;;;;;;;;;;;;5037135;28;19924;-80
2021/06/29 01:34:47;;;;;;;;;;;;;;;;;;5023198;28;19967;-80
2021/06/29 01:37:12;;;;;;;;;;;;;;;;;;5026543;28;19923;-80
2021/06/29 01:39:48;;;;;;;;;;;;;;;;;;5046681;28;19917;-80
2021/06/29 01:42:13;;;;;;;;;;;;;;;;;;5061196;28;20355;-80
2021/06/29 01:44:39;;;;;;;;;;;;;;;;;;5043928;28;19962;-80
2021/06/29 01:47:06;;;;;;;;;;;;;;;;;;5016883;28;19928;-80
2021/06/29 01:49:31;;;;;;;;;;;;;;;;;;5042545;28;20371;-80
2021/06/29 01:51:56;;;;;;;;;;;;;;;;;;5038636;28;19921;-80
2021/06/29 01:54:22;;;;;;;;;;;;;;;;;;5040399;28;19965;-80
2021/06/29 01:56:48;;;;;;;;;;;;;;;;;;5043330;28;20379;-80
2021/06/29 01:59:17;;;;;;;;;;;;;;;;;;5029078;28;20403;-80
2021/06/29 02:01:44;;;;;;;;;;;;;;;;;;5019611;28;19960;-80
2021/06/29 02:04:09;;;;;;;;;;;;;;;;;;5038239;28;19916;-80
2021/06/29 02:06:34;;;;;;;;;;;;;;;;;;5027082;28;19913;-80
2021/06/29 02:08:59;;;;;;;;;;;;;;;;;;5027303;28;19970;-80
2021/06/29 02:11:24;;;;;;;;;;;;;;;;;;5026644;28;19923;-80
2021/06/29 02:13:50;;;;;;;;;;;;;;;;;;5025943;28;20349;-80
2021/06/29 02:16:15;;;;;;;;;;;;;;;;;;5030197;28;19913;-80
2021/06/29 02:18:40;;;;;;;;;;;;;;;;;;5027372;28;19925;-80
2021/06/29 02:21:06;;;;;;;;;;;;;;;;;;5062454;28;20004;-80
2021/06/29 02:23:31;;;;;;;;;;;;;;;;;;5042669;28;19920;-80
2021/06/29 02:25:56;;;;;;;;;;;;;;;;;;5059213;28;19916;-80
2021/06/29 02:28:21;;;;;;;;;;;;;;;;;;5043147;28;19917;-80
2021/06/29 02:30:46;;;;;;;;;;;;;;;;;;5025971;28;19928;-80
2021/06/29 02:33:12;;;;;;;;;;;;;;;;;;5041619;28;19925;-80
2021/06/29 02:35:37;;;;;;;;;;;;;;;;;;5035041;28;19921;-80
2021/06/29 02:38:03;;;;;;;;;;;;;;;;;;5032524;28;19917;-80
2021/06/29 02:40:28;;;;;;;;;;;;;;;;;;5042668;28;19923;-80
2021/06/29 02:42:53;;;;;;;;;;;;;;;;;;5035237;28;19924;-80
2021/06/29 02:45:20;;;;;;;;;;;;;;;;;;5030625;28;20264;-80
2021/06/29 02:47:46;;;;;;;;;;;;;;;;;;5038225;28;19921;-80
2021/06/29 02:50:11;;;;;;;;;;;;;;;;;;5031483;28;19921;-80
2021/06/29 02:52:36;;;;;;;;;;;;;;;;;;5036379;28;19956;-80
2021/06/29 02:55:02;;;;;;;;;;;;;;;;;;5035198;28;20276;-80
2021/06/29 02:57:27;;;;;;;;;;;;;;;;;;5039590;28;20003;-80
2021/06/29 02:59:53;;;;;;;;;;;;;;;;;;5040796;28;19994;-80
2021/06/29 03:02:18;;;;;;;;;;;;;;;;;;5031122;28;19917;-80
2021/06/29 03:04:43;;;;;;;;;;;;;;;;;;5003790;28;20340;-80
2021/06/29 03:07:08;;;;;;;;;;;;;;;;;;5020610;28;19923;-80
2021/06/29 03:09:33;;;;;;;;;;;;;;;;;;5038900;28;19916;-80
2021/06/29 03:11:59;;;;;;;;;;;;;;;;;;5054970;28;19921;-80
2021/06/29 03:14:24;;;;;;;;;;;;;;;;;;5038338;28;19932;-80
2021/06/29 03:16:51;;;;;;;;;;;;;;;;;;5057819;28;19913;-80
2021/06/29 03:19:16;;;;;;;;;;;;;;;;;;5040137;28;19920;-80
2021/06/29 03:21:41;;;;;;;;;;;;;;;;;;5036793;28;19917;-80
2021/06/29 03:24:07;;;;;;;;;;;;;;;;;;5038863;28;19917;-80
2021/06/29 03:26:32;;;;;;;;;;;;;;;;;;5035870;28;19917;-80
2021/06/29 03:28:57;;;;;;;;;;;;;;;;;;5007935;28;19917;-80
2021/06/29 03:31:23;;;;;;;;;;;;;;;;;;5056036;28;20004;-80
2021/06/29 03:33:48;;;;;;;;;;;;;;;;;;5055257;28;19923;-80
2021/06/29 03:36:13;;;;;;;;;;;;;;;;;;5030172;28;19924;-80
2021/06/29 03:38:38;;;;;;;;;;;;;;;;;;5048489;28;20291;-80
2021/06/29 03:41:04;;;;;;;;;;;;;;;;;;5038272;28;19959;-80
2021/06/29 03:43:33;;;;;;;;;;;;;;;;;;5039337;28;19917;-80
2021/06/29 03:45:58;;;;;;;;;;;;;;;;;;5024578;28;19967;-80
2021/06/29 03:48:23;;;;;;;;;;;;;;;;;;5015313;28;19921;-80
2021/06/29 03:50:49;;;;;;;;;;;;;;;;;;5051076;28;19921;-80
2021/06/29 03:53:14;;;;;;;;;;;;;;;;;;5021438;28;19923;-80
2021/06/29 03:55:39;;;;;;;;;;;;;;;;;;5021212;28;19920;-80
2021/06/29 03:58:04;;;;;;;;;;;;;;;;;;5022170;28;19963;-80
2021/06/29 04:00:29;;;;;;;;;;;;;;;;;;5021641;28;19928;-80
2021/06/29 04:02:55;;;;;;;;;;;;;;;;;;5049450;23;20012;-81
2021/06/29 04:05:20;;;;;;;;;;;;;;;;;;5047625;28;20300;-80
2021/06/29 04:07:46;;;;;;;;;;;;;;;;;;5048122;28;20063;-81
2021/06/29 04:10:12;;;;;;;;;;;;;;;;;;5031602;28;19925;-81
2021/06/29 04:12:37;;;;;;;;;;;;;;;;;;5021373;28;19928;-78
2021/06/29 04:15:03;;;;;;;;;;;;;;;;;;5030935;28;20024;-78
2021/06/29 04:17:28;;;;;;;;;;;;;;;;;;5043756;28;19917;-78
2021/06/29 04:19:53;;;;;;;;;;;;;;;;;;5029733;28;20376;-77
2021/06/29 04:22:19;;;;;;;;;;;;;;;;;;5030059;28;19921;-77
2021/06/29 04:24:44;;;;;;;;;;;;;;;;;;5028967;28;19947;-77
2021/06/29 04:27:09;;;;;;;;;;;;;;;;;;5046415;28;19913;-77
2021/06/29 04:29:34;;;;;;;;;;;;;;;;;;5030347;28;19928;-77
2021/06/29 04:31:59;;;;;;;;;;;;;;;;;;5047375;28;19929;-80
2021/06/29 04:34:25;;;;;;;;;;;;;;;;;;5049671;28;19952;-80
2021/06/29 04:36:50;;;;;;;;;;;;;;;;;;5032791;28;19917;-80
2021/06/29 04:39:15;;;;;;;;;;;;;;;;;;5049886;28;19988;-80
2021/06/29 04:41:40;;;;;;;;;;;;;;;;;;5031906;28;19928;-78
2021/06/29 04:44:05;;;;;;;;;;;;;;;;;;5032743;28;19917;-80
2021/06/29 04:46:31;;;;;;;;;;;;;;;;;;5034991;28;19921;-80
2021/06/29 04:48:56;;;;;;;;;;;;;;;;;;5052868;28;19979;-80
2021/06/29 04:51:21;;;;;;;;;;;;;;;;;;5022866;28;19978;-80
2021/06/29 04:53:46;;;;;;;;;;;;;;;;;;5039961;28;19921;-80
2021/06/29 04:56:18;;;;;;;;;;;;;;;;;;5035157;28;19922;-80
2021/06/29 04:58:46;;;;;;;;;;;;;;;;;;5001833;28;19914;-81
2021/06/29 05:01:12;;;;;;;;;;;;;;;;;;5036275;28;20495;-81
2021/06/29 05:03:37;;;;;;;;;;;;;;;;;;5021284;28;20016;-80
2021/06/29 05:06:03;;;;;;;;;;;;;;;;;;5052946;28;20007;-79
2021/06/29 05:08:28;;;;;;;;;;;;;;;;;;5053059;28;19918;-80
2021/06/29 05:10:53;;;;;;;;;;;;;;;;;;5035646;28;19941;-80
2021/06/29 05:13:18;;;;;;;;;;;;;;;;;;5019024;28;19917;-80
2021/06/29 05:15:44;;;;;;;;;;;;;;;;;;5036965;28;19923;-81
2021/06/29 05:18:09;;;;;;;;;;;;;;;;;;5048888;28;19942;-81
2021/06/29 05:20:34;;;;;;;;;;;;;;;;;;5035126;28;20376;-81
2021/06/29 05:22:59;;;;;;;;;;;;;;;;;;5052983;28;20003;-80
2021/06/29 05:25:25;;;;;;;;;;;;;;;;;;5036188;28;19924;-81
2021/06/29 05:27:50;;;;;;;;;;;;;;;;;;5052493;28;19953;-80
2021/06/29 05:30:16;;;;;;;;;;;;;;;;;;5035163;28;19921;-81
2021/06/29 05:32:41;;;;;;;;;;;;;;;;;;5054586;28;20367;-81
2021/06/29 05:35:07;;;;;;;;;;;;;;;;;;5039998;28;20277;-81
2021/06/29 05:37:32;;;;;;;;;;;;;;;;;;5054735;28;19921;-81
2021/06/29 05:39:57;;;;;;;;;;;;;;;;;;5036666;28;19925;-81
2021/06/29 05:42:22;;;;;;;;;;;;;;;;;;5021270;28;19979;-81
2021/06/29 05:44:47;;;;;;;;;;;;;;;;;;5020331;28;20437;-81
2021/06/29 05:47:19;;;;;;;;;;;;;;;;;;5049835;28;19924;-81
2021/06/29 05:49:45;;;;;;;;;;;;;;;;;;5051576;28;19917;-81
2021/06/29 05:52:10;;;;;;;;;;;;;;;;;;5034894;28;20823;-80
2021/06/29 05:54:35;;;;;;;;;;;;;;;;;;5050795;28;19927;-76
2021/06/29 05:57:00;;;;;;;;;;;;;;;;;;5036464;28;19917;-80
2021/06/29 05:59:25;;;;;;;;;;;;;;;;;;5036940;28;19918;-81
2021/06/29 06:01:52;;;;;;;;;;;;;;;;;;5037431;28;19921;-80
2021/06/29 06:04:18;;;;;;;;;;;;;;;;;;5053849;28;19917;-80
2021/06/29 06:06:43;;;;;;;;;;;;;;;;;;5037359;28;19943;-80
2021/06/29 06:09:08;;;;;;;;;;;;;;;;;;5036740;28;19921;-80
2021/06/29 06:11:34;;;;;;;;;;;;;;;;;;5037229;28;19921;-80
2021/06/29 06:13:59;;;;;;;;;;;;;;;;;;5054257;28;19917;-80
2021/06/29 06:16:24;;;;;;;;;;;;;;;;;;5037732;28;19917;-81
2021/06/29 06:19:05;;;;;;;;;;;;;;;;;;5018429;28;20832;-81
2021/06/29 06:21:30;;;;;;;;;;;;;;;;;;5054413;28;19987;-81
2021/06/29 06:23:55;;;;;;;;;;;;;;;;;;5040637;28;19967;-81
2021/06/29 06:26:21;;;;;;;;;;;;;;;;;;5055630;28;19921;-80
2021/06/29 06:28:46;;;;;;;;;;;;;;;;;;5040555;28;19917;-81
2021/06/29 06:31:11;;;;;;;;;;;;;;;;;;5057459;28;20010;-80
2021/06/29 06:33:36;;;;;;;;;;;;;;;;;;5056780;28;19917;-81
2021/06/29 06:36:02;;;;;;;;;;;;;;;;;;5040519;28;19917;-81
2021/06/29 06:38:27;;;;;;;;;;;;;;;;;;5039454;28;19944;-81
2021/06/29 06:40:52;;;;;;;;;;;;;;;;;;5040141;28;19917;-81
2021/06/29 06:43:17;;;;;;;;;;;;;;;;;;5041267;28;20411;-81
2021/06/29 06:45:42;;;;;;;;;;;;;;;;;;5044475;28;19921;-82
2021/06/29 06:48:08;;;;;;;;;;;;;;;;;;5041811;28;20372;-81
2021/06/29 06:50:33;;;;;;;;;;;;;;;;;;5044036;28;19913;-81
2021/06/29 06:52:58;;;;;;;;;;;;;;;;;;5060412;28;20354;-81
2021/06/29 06:55:26;;;;;;;;;;;;;;;;;;5042500;28;19943;-81
2021/06/29 06:57:52;;;;;;;;;;;;;;;;;;5049207;28;20396;-81
2021/06/29 07:00:18;;;;;;;;;;;;;;;;;;5043684;28;20016;-81
2021/06/29 07:02:44;;;;;;;;;;;;;;;;;;5045388;28;20012;-81
2021/06/29 07:05:09;;;;;;;;;;;;;;;;;;5027587;28;19917;-81
2021/06/29 07:07:35;;;;;;;;;;;;;;;;;;5042402;28;19920;-81
2021/06/29 07:10:00;;;;;;;;;;;;;;;;;;5043215;28;19917;-81
2021/06/29 07:12:25;;;;;;;;;;;;;;;;;;5043284;28;20311;-80
2021/06/29 07:14:50;;;;;;;;;;;;;;;;;;5042867;28;19921;-81
2021/06/29 07:17:16;;;;;;;;;;;;;;;;;;5042323;28;19913;-81
2021/06/29 07:19:41;;;;;;;;;;;;;;;;;;5023139;28;20311;-80
2021/06/29 07:22:06;;;;;;;;;;;;;;;;;;5039200;28;19919;-81
2021/06/29 07:24:31;;;;;;;;;;;;;;;;;;5039286;28;19917;-81
2021/06/29 07:26:56;;;;;;;;;;;;;;;;;;5055713;28;19920;-81
2021/06/29 07:29:22;;;;;;;;;;;;;;;;;;5056054;28;19920;-81
2021/06/29 07:31:47;;;;;;;;;;;;;;;;;;5039272;28;19963;-81
2021/06/29 07:34:12;;;;;;;;;;;;;;;;;;5055565;28;19921;-81
2021/06/29 07:36:37;;;;;;;;;;;;;;;;;;5038089;28;19935;-81
2021/06/29 07:39:03;;;;;;;;;;;;;;;;;;5054958;28;19959;-81
2021/06/29 07:41:28;;;;;;;;;;;;;;;;;;5055463;28;19914;-81
2021/06/29 07:43:54;;;;;;;;;;;;;;;;;;5021117;28;19920;-81
2021/06/29 07:46:19;;;;;;;;;;;;;;;;;;5053848;28;20346;-81
2021/06/29 07:48:44;;;;;;;;;;;;;;;;;;5054633;28;19975;-81
2021/06/29 07:51:09;;;;;;;;;;;;;;;;;;5054130;28;19917;-81
2021/06/29 07:53:35;;;;;;;;;;;;;;;;;;5053885;28;20276;-81
2021/06/29 07:56:01;;;;;;;;;;;;;;;;;;5038686;28;19921;-81
2021/06/29 07:58:27;;;;;;;;;;;;;;;;;;5054799;28;19919;-81
2021/06/29 08:00:52;;;;;;;;;;;;;;;;;;5038100;28;19928;-80
2021/06/29 08:03:17;;;;;;;;;;;;;;;;;;5035886;28;20299;-80
2021/06/29 08:05:42;;;;;;;;;;;;;;;;;;5038373;28;19924;-80
2021/06/29 08:08:08;;;;;;;;;;;;;;;;;;5055377;28;19917;-80
2021/06/29 08:10:34;;;;;;;;;;;;;;;;;;5038792;28;19921;-80
2021/06/29 08:12:59;;;;;;;;;;;;;;;;;;5039185;28;19972;-80
2021/06/29 08:15:26;;;;;;;;;;;;;;;;;;5055996;28;20025;-80
2021/06/29 08:17:52;;;;;;;;;;;;;;;;;;5039204;28;19981;-80
2021/06/29 08:20:17;;;;;;;;;;;;;;;;;;5038761;28;20388;-80
2021/06/29 08:22:42;;;;;;;;;;;;;;;;;;5039554;28;20433;-80
2021/06/29 08:25:08;;;;;;;;;;;;;;;;;;5039552;28;19966;-80
2021/06/29 08:27:33;;;;;;;;;;;;;;;;;;5054650;28;19921;-80
2021/06/29 08:29:58;;;;;;;;;;;;;;;;;;5040721;28;19925;-80
2021/06/29 08:32:24;;;;;;;;;;;;;;;;;;5038093;28;19925;-80
2021/06/29 08:34:49;;;;;;;;;;;;;;;;;;5022601;28;20292;-80
2021/06/29 08:37:14;;;;;;;;;;;;;;;;;;5039391;28;19917;-80
2021/06/29 08:39:40;;;;;;;;;;;;;;;;;;5039032;28;19917;-80
2021/06/29 08:42:05;;;;;;;;;;;;;;;;;;5054982;28;20334;-80
2021/06/29 08:44:30;;;;;;;;;;;;;;;;;;5037086;28;19917;-80
2021/06/29 08:46:55;;;;;;;;;;;;;;;;;;5053710;28;19917;-80
2021/06/29 08:49:20;;;;;;;;;;;;;;;;;;5036895;28;19925;-80
2021/06/29 08:51:46;;;;;;;;;;;;;;;;;;5037041;28;19927;-81
2021/06/29 08:54:11;;;;;;;;;;;;;;;;;;5037971;28;19921;-80
2021/06/29 08:56:37;;;;;;;;;;;;;;;;;;5038619;28;19913;-80
2021/06/29 08:59:02;;;;;;;;;;;;;;;;;;5038655;28;19917;-80
2021/06/29 09:01:29;;;;;;;;;;;;;;;;;;5055276;28;20395;-80
2021/06/29 09:03:55;;;;;;;;;;;;;;;;;;5037716;28;20391;-80
2021/06/29 09:06:33;;;;;;;;;;;;;;;;;;5063848;28;19917;-81
2021/06/29 09:08:58;;;;;;;;;;;;;;;;;;5026589;28;19917;-80
2021/06/29 09:11:24;;;;;;;;;;;;;;;;;;5054351;28;19921;-80
2021/06/29 09:14:02;;;;;;;;;;;;;;;;;;5036232;28;20021;-80
2021/06/29 09:16:27;;;;;;;;;;;;;;;;;;5040412;28;19917;-80
2021/06/29 09:18:52;;;;;;;;;;;;;;;;;;5038840;28;20380;-79
2021/06/29 09:21:17;;;;;;;;;;;;;;;;;;5034259;28;19917;-80
2021/06/29 09:23:48;;;;;;;;;;;;;;;;;;5053500;28;19925;-80
2021/06/29 09:26:14;;;;;;;;;;;;;;;;;;5037801;28;19917;-80
2021/06/29 09:28:39;;;;;;;;;;;;;;;;;;5055613;28;19952;-80
2021/06/29 09:31:06;;;;;;;;;;;;;;;;;;5055212;28;19939;-81
2021/06/29 09:33:32;;;;;;;;;;;;;;;;;;5038926;28;20450;-81
2021/06/29 09:35:58;;;;;;;;;;;;;;;;;;5038894;28;19951;-80
2021/06/29 09:38:30;;;;;;;;;;;;;;;;;;5055184;28;19918;-80
2021/06/29 09:41:05;;;;;;;;;;;;;;;;;;5054341;28;19924;-80
2021/06/29 09:43:40;;;;;;;;;;;;;;;;;;5039039;28;19927;-80
2021/06/29 09:46:06;;;;;;;;;;;;;;;;;;5053463;28;20012;-80
2021/06/29 09:48:39;;;;;;;;;;;;;;;;;;5035315;28;19921;-80
2021/06/29 09:51:12;;;;;;;;;;;;;;;;;;5051519;28;19917;-80
2021/06/29 09:53:39;;;;;;;;;;;;;;;;;;5032414;28;19921;-80
2021/06/29 09:56:11;;;;;;;;;;;;;;;;;;5053421;28;20064;-80
2021/06/29 09:58:36;;;;;;;;;;;;;;;;;;5054949;28;19917;-80
2021/06/29 10:01:01;;;;;;;;;;;;;;;;;;5037439;28;19928;-80
2021/06/29 10:03:32;;;;;;;;;;;;;;;;;;5128051;22;19929;-76
2021/06/29 10:05:58;;;;;;;;;;;;;;;;;;5032212;28;20351;-75
2021/06/29 10:08:23;;;;;;;;;;;;;;;;;;5033627;28;20003;-76
2021/06/29 10:10:48;;;;;;;;;;;;;;;;;;5056316;28;19921;-76
2021/06/29 10:13:15;;;;;;;;;;;;;;;;;;5038149;28;19917;-76
2021/06/29 10:15:40;;;;;;;;;;;;;;;;;;5037596;28;20011;-75
2021/06/29 10:18:05;;;;;;;;;;;;;;;;;;5029623;28;19955;-76
2021/06/29 10:20:47;;;;;;;;;;;;;;;;;;5034104;28;19917;-76
2021/06/29 10:23:13;;;;;;;;;;;;;;;;;;5038423;28;19913;-75
2021/06/29 10:25:38;;;;;;;;;;;;;;;;;;5035471;28;19967;-76
2021/06/29 10:28:03;;;;;;;;;;;;;;;;;;5039620;28;20011;-75
2021/06/29 10:30:29;;;;;;;;;;;;;;;;;;5036833;28;19920;-76
2021/06/29 10:32:54;;;;;;;;;;;;;;;;;;5026131;28;19967;-75
2021/06/29 10:35:19;;;;;;;;;;;;;;;;;;5034580;28;20367;-75
2021/06/29 10:37:44;;;;;;;;;;;;;;;;;;5037285;28;19921;-76
2021/06/29 10:40:10;;;;;;;;;;;;;;;;;;5029324;28;19924;-76
2021/06/29 10:42:38;;;;;;;;;;;;;;;;;;5026753;28;19967;-76
2021/06/29 10:45:10;;;;;;;;;;;;;;;;;;5027219;28;19960;-76
2021/06/29 10:47:35;;;;;;;;;;;;;;;;;;5042171;28;19928;-75
2021/06/29 10:50:01;;;;;;;;;;;;;;;;;;5035461;28;19917;-76
2021/06/29 10:52:26;;;;;;;;;;;;;;;;;;5016074;28;20298;-75
2021/06/29 10:55:01;;;;;;;;;;;;;;;;;;5040243;28;19924;-76
2021/06/29 10:57:42;;;;;;;;;;;;;;;;;;5046718;28;19924;-75
2021/06/29 11:00:28;;;;;;;;;;;;;;;;;;5029637;28;19916;-75
2021/06/29 11:02:59;;;;;;;;;;;;;;;;;;5027658;28;19917;-75
2021/06/29 11:05:40;;;;;;;;;;;;;;;;;;5052200;28;19921;-75
2021/06/29 11:08:10;;;;;;;;;;;;;;;;;;5026338;28;20289;-75
2021/06/29 11:10:37;;;;;;;;;;;;;;;;;;5028515;28;19921;-75
2021/06/29 11:13:02;;;;;;;;;;;;;;;;;;5038109;28;19917;-75
2021/06/29 11:15:40;;;;;;;;;;;;;;;;;;5028367;28;19917;-75
2021/06/29 11:18:06;;;;;;;;;;;;;;;;;;5037414;28;19921;-75
2021/06/29 11:20:39;;;;;;;;;;;;;;;;;;5036507;28;19917;-75
2021/06/29 11:23:05;;;;;;;;;;;;;;;;;;5038035;28;20303;-75
2021/06/29 11:25:37;;;;;;;;;;;;;;;;;;5038570;28;19917;-76
2021/06/29 11:28:13;;;;;;;;;;;;;;;;;;5030443;28;20003;-76
2021/06/29 11:30:47;;;;;;;;;;;;;;;;;;5032218;28;19920;-75
2021/06/29 11:33:24;;;;;;;;;;;;;;;;;;5053476;28;19924;-75
2021/06/29 11:35:50;;;;;;;;;;;;;;;;;;5053444;28;19917;-75
2021/06/29 11:38:15;;;;;;;;;;;;;;;;;;5032449;28;19928;-76
2021/06/29 11:40:40;;;;;;;;;;;;;;;;;;5052704;28;19925;-75
2021/06/29 11:43:06;;;;;;;;;;;;;;;;;;5022701;28;19955;-75
2021/06/29 11:45:31;;;;;;;;;;;;;;;;;;5029664;28;20345;-76
2021/06/29 11:47:57;;;;;;;;;;;;;;;;;;5052030;28;19923;-76
2021/06/29 11:50:25;;;;;;;;;;;;;;;;;;5036590;28;19942;-75
2021/06/29 11:52:50;;;;;;;;;;;;;;;;;;5034920;28;19917;-76
2021/06/29 11:55:19;;;;;;;;;;;;;;;;;;5037480;28;20016;-76
2021/06/29 11:57:48;;;;;;;;;;;;;;;;;;5032095;28;19917;-76
2021/06/29 12:00:21;;;;;;;;;;;;;;;;;;5029943;28;19963;-75
2021/06/29 12:02:47;;;;;;;;;;;;;;;;;;5035571;28;19921;-75
2021/06/29 12:05:17;;;;;;;;;;;;;;;;;;5036242;28;19917;-75
2021/06/29 12:07:42;;;;;;;;;;;;;;;;;;5052713;28;19956;-76
2021/06/29 12:10:10;;;;;;;;;;;;;;;;;;5053938;28;19974;-75
2021/06/29 12:12:36;;;;;;;;;;;;;;;;;;5052649;28;19975;-76
2021/06/29 12:15:03;;;;;;;;;;;;;;;;;;5036169;28;20387;-75
2021/06/29 12:17:28;;;;;;;;;;;;;;;;;;5036041;28;19916;-76
2021/06/29 12:20:12;;;;;;;;;;;;;;;;;;5036119;28;19920;-76
2021/06/29 12:22:40;;;;;;;;;;;;;;;;;;5035640;28;19936;-76
2021/06/29 12:25:06;;;;;;;;;;;;;;;;;;5036090;28;19913;-76
2021/06/29 12:27:31;;;;;;;;;;;;;;;;;;5053331;28;19913;-75
2021/06/29 12:29:57;;;;;;;;;;;;;;;;;;5035867;28;19923;-75
2021/06/29 12:32:26;;;;;;;;;;;;;;;;;;5035530;28;19971;-75
2021/06/29 12:34:52;;;;;;;;;;;;;;;;;;5036061;28;19917;-75
2021/06/29 12:37:17;;;;;;;;;;;;;;;;;;5035803;28;20381;-74
2021/06/29 12:39:43;;;;;;;;;;;;;;;;;;5035686;28;20012;-75
2021/06/29 12:42:09;;;;;;;;;;;;;;;;;;5035582;28;20376;-75
2021/06/29 12:44:34;;;;;;;;;;;;;;;;;;5035814;28;19962;-76
2021/06/29 12:46:59;;;;;;;;;;;;;;;;;;5036061;28;19917;-76
2021/06/29 12:49:25;;;;;;;;;;;;;;;;;;5035471;28;19923;-75
2021/06/29 12:52:02;;;;;;;;;;;;;;;;;;5053226;28;19999;-75
2021/06/29 12:54:28;;;;;;;;;;;;;;;;;;5035478;28;19913;-75
2021/06/29 12:56:54;;;;;;;;;;;;;;;;;;5035300;28;19917;-75
2021/06/29 12:59:23;;;;;;;;;;;;;;;;;;5031685;28;19913;-75
2021/06/29 13:01:51;;;;;;;;;;;;;;;;;;5026350;28;20391;-75
2021/06/29 13:04:17;;;;;;;;;;;;;;;;;;5035776;28;19979;-75
2021/06/29 13:06:42;;;;;;;;;;;;;;;;;;5053072;28;20291;-75
2021/06/29 13:09:18;;;;;;;;;;;;;;;;;;5030016;28;19917;-75
2021/06/29 13:11:56;;;;;;;;;;;;;;;;;;5017020;28;19921;-75
2021/06/29 13:14:21;;;;;;;;;;;;;;;;;;5020871;28;19924;-75
2021/06/29 13:16:47;;;;;;;;;;;;;;;;;;5052883;28;19913;-75
2021/06/29 13:19:19;;;;;;;;;;;;;;;;;;5035399;28;19993;-76
2021/06/29 13:21:51;;;;;;;;;;;;;;;;;;5032063;28;19917;-76
2021/06/29 13:24:16;;;;;;;;;;;;;;;;;;5035338;28;19921;-75
2021/06/29 13:26:52;;;;;;;;;;;;;;;;;;5032400;28;19917;-76
2021/06/29 13:29:32;;;;;;;;;;;;;;;;;;5032848;28;20288;-75
2021/06/29 13:31:57;;;;;;;;;;;;;;;;;;5033242;28;20007;-75
2021/06/29 13:34:23;;;;;;;;;;;;;;;;;;5035046;28;20047;-75
2021/06/29 13:36:48;;;;;;;;;;;;;;;;;;5031501;28;19924;-76
2021/06/29 13:39:22;;;;;;;;;;;;;;;;;;5023912;28;20358;-75
2021/06/29 13:41:47;;;;;;;;;;;;;;;;;;5032612;28;19924;-76
2021/06/29 13:44:12;;;;;;;;;;;;;;;;;;5026459;28;19917;-75
2021/06/29 13:46:38;;;;;;;;;;;;;;;;;;5035443;28;19982;-76
2021/06/29 13:49:16;;;;;;;;;;;;;;;;;;5024643;28;19917;-77
2021/06/29 13:51:41;;;;;;;;;;;;;;;;;;5034293;28;20449;-77
2021/06/29 13:54:16;;;;;;;;;;;;;;;;;;5030895;28;19917;-75
2021/06/29 13:56:41;;;;;;;;;;;;;;;;;;5034883;28;19928;-76
2021/06/29 13:59:07;;;;;;;;;;;;;;;;;;5047707;28;19921;-76
2021/06/29 14:01:34;;;;;;;;;;;;;;;;;;5033522;28;19967;-76
2021/06/29 14:04:02;;;;;;;;;;;;;;;;;;5043939;28;20358;-76
2021/06/29 14:06:28;;;;;;;;;;;;;;;;;;5028219;28;19923;-77
2021/06/29 14:09:04;;;;;;;;;;;;;;;;;;5032060;28;19920;-76
2021/06/29 14:11:30;;;;;;;;;;;;;;;;;;5031388;28;19921;-76
2021/06/29 14:13:56;;;;;;;;;;;;;;;;;;5018242;28;19921;-76
2021/06/29 14:16:22;;;;;;;;;;;;;;;;;;5030380;28;19928;-76
2021/06/29 14:18:47;;;;;;;;;;;;;;;;;;5025494;28;19936;-76
2021/06/29 14:21:16;;;;;;;;;;;;;;;;;;5020868;28;19917;-76
2021/06/29 14:23:42;;;;;;;;;;;;;;;;;;5029026;28;19923;-76
2021/06/29 14:26:07;;;;;;;;;;;;;;;;;;5049316;28;20041;-76
2021/06/29 14:28:33;;;;;;;;;;;;;;;;;;5015140;28;19967;-77
2021/06/29 14:30:59;;;;;;;;;;;;;;;;;;5046186;28;19925;-76
2021/06/29 14:33:24;;;;;;;;;;;;;;;;;;5031147;28;19974;-76
2021/06/29 14:35:49;;;;;;;;;;;;;;;;;;5032103;28;19924;-76
2021/06/29 14:38:14;;;;;;;;;;;;;;;;;;5026553;28;19972;-76
2021/06/29 14:40:40;;;;;;;;;;;;;;;;;;5029241;28;19916;-77
2021/06/29 14:43:05;;;;;;;;;;;;;;;;;;5026810;28;20741;-76
2021/06/29 14:45:30;;;;;;;;;;;;;;;;;;5019008;28;19924;-76
2021/06/29 14:47:55;;;;;;;;;;;;;;;;;;5018597;28;19939;-75
2021/06/29 14:50:20;;;;;;;;;;;;;;;;;;5004719;28;20493;-77
2021/06/29 14:52:46;;;;;;;;;;;;;;;;;;5052017;28;19921;-76
2021/06/29 14:55:12;;;;;;;;;;;;;;;;;;5052624;28;19923;-77
2021/06/29 14:57:37;;;;;;;;;;;;;;;;;;5037755;28;19948;-76
2021/06/29 15:00:09;;;;;;;;;;;;;;;;;;5007748;28;20415;-76
2021/06/29 15:02:35;;;;;;;;;;;;;;;;;;5027624;28;19978;-78
2021/06/29 15:05:00;;;;;;;;;;;;;;;;;;5033415;28;19924;-75
2021/06/29 15:07:28;;;;;;;;;;;;;;;;;;5035276;28;20477;-77
2021/06/29 15:09:54;;;;;;;;;;;;;;;;;;5035822;28;19917;-76
2021/06/29 15:12:20;;;;;;;;;;;;;;;;;;5032485;28;19982;-76
2021/06/29 15:14:45;;;;;;;;;;;;;;;;;;5034442;28;19927;-76
2021/06/29 15:17:11;;;;;;;;;;;;;;;;;;5051966;28;19920;-76
2021/06/29 15:19:36;;;;;;;;;;;;;;;;;;5051052;28;20378;-77
2021/06/29 15:22:01;;;;;;;;;;;;;;;;;;5032996;28;20015;-77
2021/06/29 15:24:27;;;;;;;;;;;;;;;;;;5030066;28;19974;-74
2021/06/29 15:26:52;;;;;;;;;;;;;;;;;;5034046;28;19913;-75
2021/06/29 15:29:17;;;;;;;;;;;;;;;;;;5039319;28;19921;-75
2021/06/29 15:31:43;;;;;;;;;;;;;;;;;;5028872;28;20419;-76
2021/06/29 15:34:09;;;;;;;;;;;;;;;;;;5029967;28;19928;-75
2021/06/29 15:39:18;;;;;;;;;;;;;;;;;;5088456;27;20022;-76
2021/06/29 15:41:44;;;;;;;;;;;;;;;;;;5071445;28;20383;-77
2021/06/29 15:44:09;;;;;;;;;;;;;;;;;;5051221;28;19921;-77
2021/06/29 15:46:34;;;;;;;;;;;;;;;;;;5067009;28;19921;-76
2021/06/29 15:48:59;;;;;;;;;;;;;;;;;;5063446;28;19971;-77
2021/06/29 15:51:25;;;;;;;;;;;;;;;;;;5066860;28;19962;-77
2021/06/29 15:53:50;;;;;;;;;;;;;;;;;;5062803;28;19931;-76
2021/06/29 15:59:00;;;;;;;;;;;;;;;;;;5065574;28;19931;-75
2021/06/29 16:01:25;;;;;;;;;;;;;;;;;;5046815;28;19921;-74
2021/06/29 16:03:50;;;;;;;;;;;;;;;;;;5065000;28;19913;-75
2021/06/29 16:06:16;;;;;;;;;;;;;;;;;;5061409;28;19963;-75
2021/06/29 16:08:41;;;;;;;;;;;;;;;;;;5048611;28;19960;-73
2021/06/29 16:11:06;;;;;;;;;;;;;;;;;;5063474;28;19925;-74
2021/06/29 16:13:31;;;;;;;;;;;;;;;;;;5064050;28;19959;-73
2021/06/29 16:15:57;;;;;;;;;;;;;;;;;;5052799;28;20024;-74
2021/06/29 16:18:23;;;;;;;;;;;;;;;;;;5062134;28;20717;-73
2021/06/29 16:20:48;;;;;;;;;;;;;;;;;;5065445;28;19917;-74
2021/06/29 16:23:16;;;;;;;;;;;;;;;;;;5063854;28;19923;-74
2021/06/29 16:25:41;;;;;;;;;;;;;;;;;;5065255;28;20011;-74
2021/06/29 16:28:06;;;;;;;;;;;;;;;;;;5064933;28;20018;-75
2021/06/29 16:30:33;;;;;;;;;;;;;;;;;;5064086;28;19920;-74
2021/06/29 16:32:58;;;;;;;;;;;;;;;;;;5064474;28;19975;-74
2021/06/29 16:35:24;;;;;;;;;;;;;;;;;;5064385;28;19913;-74
2021/06/29 16:37:49;;;;;;;;;;;;;;;;;;5067157;28;20439;-74
2021/06/29 16:40:15;;;;;;;;;;;;;;;;;;5063930;28;20462;-74
2021/06/29 16:42:40;;;;;;;;;;;;;;;;;;5047723;28;19920;-74
2021/06/29 16:45:07;;;;;;;;;;;;;;;;;;5044776;28;19921;-74
2021/06/29 16:47:32;;;;;;;;;;;;;;;;;;5057401;28;19921;-75
2021/06/29 16:49:57;;;;;;;;;;;;;;;;;;5038284;28;20307;-74